Time;durP1;ratioP1;P1;durP2;ratioP2;P2;SDS_P1;SDS_P2;PMS_P1;PMS_P2;Temp;Humidity;BMP_temperature;BMP_pressure;BME280_temperature;BME280_humidity;BME280_pressure;Samples;Min_cycle;Max_cycle;Signal;HPM_P1;HPM_P2
2023/12/02 15:48:59;;;;;;;34.63;18.80;;;1.60;99.90;;;;;;5073041;28;20482;-72
2023/12/02 15:51:27;;;;;;;35.88;18.05;;;1.00;99.90;;;;;;5072819;28;20029;-72
2023/12/02 15:53:53;;;;;;;30.25;16.60;;;0.90;99.90;;;;;;5073039;28;20029;-73
2023/12/02 15:56:22;;;;;;;35.72;18.08;;;0.90;99.90;;;;;;5062491;28;20366;-72
2023/12/02 15:58:47;;;;;;;38.53;19.33;;;0.90;99.90;;;;;;5068149;28;20037;-72
2023/12/02 16:01:13;;;;;;;;;;;0.90;99.90;;;;;;5071676;28;20393;-73
2023/12/02 16:03:48;;;;;;;33.10;17.02;;;0.90;99.90;;;;;;5074375;28;19970;-75
2023/12/02 16:06:14;;;;;;;34.50;18.27;;;1.00;99.90;;;;;;5072859;28;20094;-73
2023/12/02 16:08:41;;;;;;;35.33;18.02;;;1.00;99.90;;;;;;5065322;28;20139;-73
2023/12/02 16:11:09;;;;;;;36.95;19.45;;;1.00;99.90;;;;;;5069959;28;20040;-74
2023/12/02 16:13:41;;;;;;;37.10;19.13;;;1.00;99.90;;;;;;5072427;28;20028;-73
2023/12/02 16:16:17;;;;;;;36.33;18.48;;;1.00;99.90;;;;;;5072115;28;20032;-73
2023/12/02 16:18:43;;;;;;;35.93;18.63;;;1.00;99.90;;;;;;5066914;28;20043;-73
2023/12/02 16:21:14;;;;;;;41.05;21.60;;;1.10;99.90;;;;;;5073097;28;20592;-73
2023/12/02 16:23:42;;;;;;;37.38;19.00;;;1.10;99.90;;;;;;5072417;28;20114;-74
2023/12/02 16:26:11;;;;;;;36.28;19.15;;;1.10;99.90;;;;;;5071360;28;20043;-78
2023/12/02 16:28:39;;;;;;;47.97;20.85;;;1.10;99.90;;;;;;5069814;28;20045;-78
2023/12/02 16:31:05;;;;;;;36.75;17.48;;;1.10;99.90;;;;;;5065101;28;20028;-77
2023/12/02 16:33:31;;;;;;;35.90;20.00;;;1.10;99.90;;;;;;5072068;28;20044;-76
2023/12/02 16:35:58;;;;;;;;;;;1.00;99.90;;;;;;5072318;28;20504;-77
2023/12/02 16:38:25;;;;;;;30.90;16.48;;;1.00;99.90;;;;;;5073644;28;19908;-77
2023/12/02 16:40:52;;;;;;;36.05;20.63;;;1.10;99.90;;;;;;5072363;28;20038;-77
2023/12/02 16:43:19;;;;;;;35.25;18.00;;;1.00;99.90;;;;;;5074636;28;20029;-77
2023/12/02 16:45:45;;;;;;;34.25;17.58;;;0.90;99.90;;;;;;5073388;28;20040;-77
2023/12/02 16:48:12;;;;;;;;;;;1.00;99.90;;;;;;5080870;28;20381;-77
2023/12/02 16:50:42;;;;;;;34.13;17.92;;;1.00;99.90;;;;;;5083559;28;20444;-78
2023/12/02 16:53:09;;;;;;;40.45;19.45;;;1.10;99.90;;;;;;5084459;28;20020;-78
2023/12/02 16:55:35;;;;;;;38.05;20.63;;;1.10;99.90;;;;;;5085301;28;20017;-78
2023/12/02 16:58:02;;;;;;;39.47;21.35;;;1.10;99.90;;;;;;5093704;28;20020;-77
2023/12/02 17:00:39;;;;;;;35.58;19.52;;;1.20;99.90;;;;;;5078876;28;20034;-77
2023/12/02 17:03:06;;;;;;;40.22;20.00;;;1.10;99.90;;;;;;5074724;28;20024;-78
2023/12/02 17:05:32;;;;;;;44.10;21.60;;;1.20;99.90;;;;;;5071866;28;20033;-78
2023/12/02 17:08:00;;;;;;;;;;;1.10;99.90;;;;;;5072548;28;20081;-78
2023/12/02 17:10:44;;;;;;;;;;;1.20;99.90;;;;;;5070768;28;19908;-77
2023/12/02 17:13:40;;;;;;;36.10;18.70;;;1.10;99.90;;;;;;5076923;28;19973;-77
2023/12/02 17:16:34;;;;;;;38.90;16.58;;;1.10;99.90;;;;;;5068881;28;20036;-78
2023/12/02 17:19:17;;;;;;;30.85;15.35;;;1.10;99.90;;;;;;5070065;28;20035;-78
2023/12/02 17:22:13;;;;;;;29.48;16.65;;;1.00;99.90;;;;;;5077894;28;20031;-78
2023/12/02 17:24:43;;;;;;;32.90;19.87;;;0.90;99.90;;;;;;5078241;28;20036;-78
2023/12/02 17:27:38;;;;;;;30.27;16.80;;;0.90;99.90;;;;;;5074304;28;20801;-78
2023/12/02 17:30:04;;;;;;;33.90;17.52;;;0.80;99.90;;;;;;5074555;28;20140;-78
2023/12/02 17:32:30;;;;;;;31.60;17.27;;;0.90;99.90;;;;;;5069777;28;20021;-78
2023/12/02 17:34:56;;;;;;;32.22;17.90;;;0.90;99.90;;;;;;5072695;28;20021;-78
2023/12/02 17:37:21;;;;;;;;;;;1.00;99.90;;;;;;5071979;28;20243;-78
2023/12/02 17:39:46;;;;;;;37.13;18.05;;;1.00;99.90;;;;;;5078970;28;19916;-74
2023/12/02 17:42:14;;;;;;;;;;;1.00;99.90;;;;;;5061248;28;20019;-74
2023/12/02 17:44:40;;;;;;;26.23;13.90;;;1.00;99.90;;;;;;5076341;28;19924;-74
2023/12/02 17:47:06;;;;;;;;;;;1.00;99.90;;;;;;5078503;28;20024;-72
2023/12/02 17:49:31;;;;;;;29.05;14.35;;;1.00;99.90;;;;;;5078606;28;19919;-73
2023/12/02 17:51:59;;;;;;;;;;;1.00;99.90;;;;;;5079785;28;20027;-73
2023/12/02 17:54:24;;;;;;;36.00;16.40;;;0.90;99.90;;;;;;5074141;28;19916;-73
2023/12/02 17:56:51;;;;;;;;;;;0.90;99.90;;;;;;5076443;28;20073;-72
2023/12/02 17:59:16;;;;;;;30.42;15.27;;;0.90;99.90;;;;;;5077777;28;20365;-72
2023/12/02 18:01:42;;;;;;;;;;;0.90;99.90;;;;;;5077675;28;20077;-72
2023/12/02 18:04:07;;;;;;;35.83;17.05;;;0.90;99.90;;;;;;5076366;28;19971;-72
2023/12/02 18:06:33;;;;;;;;;;;0.90;99.90;;;;;;5078425;28;20153;-72
2023/12/02 18:09:00;;;;;;;35.42;18.33;;;0.90;99.90;;;;;;5076301;28;19908;-72
2023/12/02 18:11:26;;;;;;;31.65;16.50;;;0.90;99.90;;;;;;5072625;28;20061;-72
2023/12/02 18:13:52;;;;;;;29.80;15.27;;;0.90;99.90;;;;;;5077305;28;20416;-72
2023/12/02 18:16:17;;;;;;;;;;;0.80;99.90;;;;;;5077736;28;20024;-71
2023/12/02 18:18:43;;;;;;;29.17;16.05;;;0.80;99.90;;;;;;5077845;28;20053;-72
2023/12/02 18:21:08;;;;;;;;;;;0.80;99.90;;;;;;5078409;28;20130;-72
2023/12/02 18:23:34;;;;;;;35.42;17.27;;;0.80;99.90;;;;;;5076532;28;19908;-71
2023/12/02 18:25:59;;;;;;;;;;;0.80;99.90;;;;;;5075612;28;20024;-72
2023/12/02 18:28:25;;;;;;;32.65;16.55;;;0.80;99.90;;;;;;5077859;28;19919;-72
2023/12/02 18:30:50;;;;;;;;;;;0.80;99.90;;;;;;5077948;28;20024;-72
2023/12/02 18:33:16;;;;;;;30.13;15.77;;;0.80;99.90;;;;;;5079456;28;19908;-72
2023/12/02 18:35:41;;;;;;;;;;;0.70;99.90;;;;;;5072095;28;20050;-71
2023/12/02 18:38:07;;;;;;;32.95;17.13;;;0.70;99.90;;;;;;5077341;28;19912;-72
2023/12/02 18:40:33;;;;;;;;;;;0.70;99.90;;;;;;5078937;28;20047;-71
2023/12/02 18:43:09;;;;;;;34.47;17.40;;;0.70;99.90;;;;;;5076860;28;19994;-71
2023/12/02 18:45:35;;;;;;;38.30;20.53;;;0.70;99.90;;;;;;5072516;28;20032;-71
2023/12/02 18:48:00;;;;;;;;;;;0.70;99.90;;;;;;5076394;28;20549;-71
2023/12/02 18:50:26;;;;;;;32.60;16.63;;;0.60;99.90;;;;;;5076904;28;19956;-71
2023/12/02 18:52:51;;;;;;;;;;;0.60;99.90;;;;;;5076300;28;20056;-72
2023/12/02 18:55:16;;;;;;;32.20;16.80;;;0.50;99.90;;;;;;5075170;28;19916;-72
2023/12/02 18:57:42;;;;;;;37.03;18.10;;;0.40;99.90;;;;;;5075752;28;20102;-72
2023/12/02 19:00:09;;;;;;;;;;;0.40;99.90;;;;;;5078313;28;20037;-73
2023/12/02 19:02:34;;;;;;;34.37;17.50;;;0.40;99.90;;;;;;5078631;28;20254;-73
2023/12/02 19:05:01;;;;;;;34.08;17.40;;;0.40;99.90;;;;;;5075799;28;20759;-73
2023/12/02 19:07:26;;;;;;;;;;;0.40;99.90;;;;;;5079535;28;20044;-72
2023/12/02 19:09:52;;;;;;;33.55;16.35;;;0.40;99.90;;;;;;5077335;28;19954;-72
2023/12/02 19:12:17;;;;;;;;;;;0.40;99.90;;;;;;5077424;28;20499;-72
2023/12/02 19:14:43;;;;;;;39.83;20.23;;;0.40;99.90;;;;;;5076436;28;19923;-73
2023/12/02 19:17:09;;;;;;;;;;;0.40;99.90;;;;;;5077982;28;20607;-72
2023/12/02 19:19:35;;;;;;;35.88;16.65;;;0.40;99.90;;;;;;5074609;28;19915;-73
2023/12/02 19:22:00;;;;;;;;;;;0.40;99.90;;;;;;5078386;28;20032;-72
2023/12/02 19:24:26;;;;;;;34.20;18.85;;;0.30;99.90;;;;;;5066377;22;19938;-70
2023/12/02 19:26:51;;;;;;;;;;;0.30;99.90;;;;;;5038386;28;20080;-70
2023/12/02 19:29:17;;;;;;;34.13;17.10;;;0.30;99.90;;;;;;5039503;28;20396;-70
2023/12/02 19:31:42;;;;;;;;;;;0.40;99.90;;;;;;5039230;28;20117;-70
2023/12/02 19:34:09;;;;;;;33.53;17.92;;;0.40;99.90;;;;;;5041915;28;20255;-70
2023/12/02 19:36:35;;;;;;;38.67;16.42;;;0.40;99.90;;;;;;5039417;28;20103;-70
2023/12/02 19:39:01;;;;;;;34.85;18.25;;;0.30;99.90;;;;;;5039519;28;20037;-70
2023/12/02 19:41:27;;;;;;;;;;;0.30;99.90;;;;;;5039185;28;20026;-70
2023/12/02 19:43:52;;;;;;;31.05;16.80;;;0.30;99.90;;;;;;5037461;28;19908;-70
2023/12/02 19:46:17;;;;;;;;;;;0.30;99.90;;;;;;5037313;28;20389;-70
2023/12/02 19:48:43;;;;;;;36.70;18.35;;;0.30;99.90;;;;;;5038395;28;20023;-70
2023/12/02 19:51:08;;;;;;;;;;;0.20;99.90;;;;;;5039780;28;20112;-70
2023/12/02 19:53:34;;;;;;;34.65;16.88;;;0.30;99.90;;;;;;5039178;28;19912;-74
2023/12/02 19:56:00;;;;;;;;;;;0.30;99.90;;;;;;5039129;28;20441;-73
2023/12/02 19:58:25;;;;;;;35.72;18.85;;;1.00;99.90;;;;;;5040098;28;20404;-70
2023/12/02 20:00:51;;;;;;;;;;;1.90;99.90;;;;;;5038789;28;20033;-71
2023/12/02 20:03:17;;;;;;;35.08;16.75;;;1.80;99.90;;;;;;5036618;28;19905;-70
2023/12/02 20:05:42;;;;;;;;;;;1.50;99.90;;;;;;5039782;28;20074;-70
2023/12/02 20:08:08;;;;;;;34.15;17.08;;;1.20;99.90;;;;;;5038383;28;20293;-70
2023/12/02 20:10:33;;;;;;;;;;;0.90;99.90;;;;;;5038261;28;20022;-70
2023/12/02 20:12:59;;;;;;;32.00;16.17;;;0.70;99.90;;;;;;5039105;28;19913;-70
2023/12/02 20:15:24;;;;;;;;;;;0.60;99.90;;;;;;5039832;28;20024;-70
2023/12/02 20:17:50;;;;;;;33.28;15.40;;;0.50;99.90;;;;;;5038440;28;20393;-70
2023/12/02 20:20:15;;;;;;;;;;;0.50;99.90;;;;;;5040059;28;20567;-70
2023/12/02 20:22:41;;;;;;;29.75;14.80;;;0.50;99.90;;;;;;5038500;28;19919;-70
2023/12/02 20:25:06;;;;;;;;;;;0.40;99.90;;;;;;5038458;28;20033;-70
2023/12/02 20:27:32;;;;;;;27.20;14.60;;;0.40;99.90;;;;;;5036718;28;19919;-70
2023/12/02 20:29:57;;;;;;;;;;;0.30;99.90;;;;;;5038136;28;20067;-70
2023/12/02 20:32:22;;;;;;;34.55;18.40;;;0.30;99.90;;;;;;5036719;28;20282;-71
2023/12/02 20:34:48;;;;;;;;;;;0.30;99.90;;;;;;5040189;28;20155;-70
2023/12/02 20:37:13;;;;;;;29.13;15.95;;;0.30;99.90;;;;;;5041404;28;19909;-70
2023/12/02 20:39:39;;;;;;;;;;;0.30;99.90;;;;;;5041789;28;20029;-70
2023/12/02 20:42:05;;;;;;;37.75;16.15;;;0.30;99.90;;;;;;5042371;28;19966;-71
2023/12/02 20:44:30;;;;;;;32.40;16.10;;;0.30;99.90;;;;;;5042060;28;20021;-70
2023/12/02 20:46:55;;;;;;;;;;;0.30;99.90;;;;;;5041204;28;20060;-71
2023/12/02 20:49:21;;;;;;;28.50;13.80;;;0.30;99.90;;;;;;5041651;28;19909;-70
2023/12/02 20:51:47;;;;;;;;;;;0.30;99.90;;;;;;5041558;28;20026;-70
2023/12/02 20:54:12;;;;;;;32.95;16.65;;;0.30;99.90;;;;;;5041684;28;20362;-71
2023/12/02 20:56:37;;;;;;;;;;;0.30;99.90;;;;;;5041699;28;20374;-70
2023/12/02 20:59:03;;;;;;;30.80;15.88;;;0.30;99.90;;;;;;5042049;28;19913;-71
2023/12/02 21:01:28;;;;;;;;;;;0.30;99.90;;;;;;5041150;28;20027;-70
2023/12/02 21:03:54;;;;;;;30.75;14.93;;;0.30;99.90;;;;;;5039502;28;20332;-71
2023/12/02 21:06:19;;;;;;;;;;;0.30;99.90;;;;;;5041471;28;20703;-71
2023/12/02 21:08:48;;;;;;;26.33;15.40;;;0.30;99.90;;;;;;5041182;28;19912;-70
2023/12/02 21:11:13;;;;;;;30.10;15.38;;;0.30;99.90;;;;;;5041023;28;20078;-71
2023/12/02 21:13:39;;;;;;;;;;;0.30;99.90;;;;;;5041025;28;20025;-70
2023/12/02 21:16:05;;;;;;;34.28;17.92;;;0.30;99.90;;;;;;5041021;28;20389;-70
2023/12/02 21:18:30;;;;;;;;;;;0.40;99.90;;;;;;5043082;28;20028;-71
2023/12/02 21:20:56;;;;;;;30.00;16.00;;;0.40;99.90;;;;;;5029076;28;20415;-71
2023/12/02 21:23:22;;;;;;;;;;;0.50;99.90;;;;;;5041544;28;20021;-71
2023/12/02 21:25:47;;;;;;;31.50;16.27;;;0.40;99.90;;;;;;5041433;28;20408;-70
2023/12/02 21:28:13;;;;;;;;;;;0.40;99.90;;;;;;5041409;28;20029;-71
2023/12/02 21:30:41;;;;;;;24.45;13.02;;;0.40;99.90;;;;;;5040057;28;19987;-70
2023/12/02 21:33:09;;;;;;;27.52;14.35;;;0.30;99.90;;;;;;5042145;28;20029;-70
2023/12/02 21:35:37;;;;;;;24.90;12.88;;;0.30;99.90;;;;;;5040257;28;20120;-71
2023/12/02 21:38:05;;;;;;;32.83;15.70;;;0.20;99.90;;;;;;5041958;28;20037;-71
2023/12/02 21:40:35;;;;;;;28.58;14.68;;;0.10;99.90;;;;;;5042670;28;20978;-71
2023/12/02 21:43:03;;;;;;;25.15;14.95;;;0.10;99.90;;;;;;5041015;28;20037;-71
2023/12/02 21:45:50;;;;;;;29.60;15.13;;;0.10;99.90;;;;;;5040118;28;20029;-70
2023/12/02 21:48:35;;;;;;;30.80;16.77;;;0.10;99.90;;;;;;5041348;28;20099;-71
2023/12/02 21:51:07;;;;;;;26.30;15.73;;;0.10;99.90;;;;;;5041035;28;20053;-71
2023/12/02 21:53:33;;;;;;;31.13;15.43;;;0.10;99.90;;;;;;5040240;28;20386;-70
2023/12/02 21:55:58;;;;;;;;;;;0.10;99.90;;;;;;5040891;28;20025;-70
2023/12/02 21:58:32;;;;;;;24.35;15.18;;;0.10;99.90;;;;;;5040070;28;19999;-70
2023/12/02 22:01:10;;;;;;;23.63;12.57;;;0.00;99.90;;;;;;5038954;28;20037;-71
2023/12/02 22:03:40;;;;;;;23.73;12.00;;;0.00;99.90;;;;;;5040267;28;20034;-70
2023/12/02 22:06:41;;;;;;;24.95;12.15;;;-0.10;99.90;;;;;;5040519;28;20025;-70
2023/12/02 22:09:07;;;;;;;31.70;14.68;;;-0.10;99.90;;;;;;5008438;28;20234;-70
2023/12/02 22:11:38;;;;;;;;;;;-0.10;99.90;;;;;;5040947;28;20119;-70
2023/12/02 22:14:13;;;;;;;28.77;13.43;;;-0.10;99.90;;;;;;5039185;28;19919;-70
2023/12/02 22:16:38;;;;;;;23.02;12.63;;;-0.20;99.90;;;;;;5042158;28;20035;-70
2023/12/02 22:19:06;;;;;;;;;;;-0.20;99.90;;;;;;5040476;28;20140;-70
2023/12/02 22:21:33;;;;;;;25.30;12.25;;;-0.30;99.90;;;;;;5040423;28;19909;-70
2023/12/02 22:23:59;;;;;;;24.98;12.50;;;-0.30;99.90;;;;;;5039798;28;20037;-70
2023/12/02 22:26:29;;;;;;;;;;;-0.30;99.90;;;;;;5040279;28;20029;-70
2023/12/02 22:28:58;;;;;;;22.50;11.73;;;-0.20;99.90;;;;;;5039741;28;19917;-71
2023/12/02 22:31:24;;;;;;;25.58;11.63;;;-0.20;99.90;;;;;;5039405;28;20025;-70
2023/12/02 22:33:49;;;;;;;;;;;-0.20;99.90;;;;;;5039888;28;20025;-70
2023/12/02 22:36:15;;;;;;;22.70;12.35;;;-0.20;99.90;;;;;;5040067;28;20015;-70
2023/12/02 22:38:43;;;;;;;;;;;-0.20;99.90;;;;;;5039842;28;20026;-71
2023/12/02 22:41:12;;;;;;;27.42;14.63;;;-0.20;99.90;;;;;;5037833;28;20347;-70
2023/12/02 22:43:43;;;;;;;28.58;13.88;;;-0.10;99.90;;;;;;5040220;28;20036;-70
2023/12/02 22:46:13;;;;;;;28.25;13.32;;;-0.10;99.90;;;;;;5041332;28;20033;-71
2023/12/02 22:48:48;;;;;;;29.42;14.77;;;0.00;99.90;;;;;;5039725;28;20033;-70
2023/12/02 22:51:22;;;;;;;26.60;15.35;;;0.00;99.90;;;;;;5039731;28;20398;-71
2023/12/02 22:53:50;;;;;;;25.92;13.18;;;0.10;99.90;;;;;;5038079;28;20052;-70
2023/12/02 22:56:19;;;;;;;22.95;13.88;;;0.10;99.90;;;;;;5038868;28;20025;-71
2023/12/02 22:58:46;;;;;;;28.48;13.70;;;0.10;99.90;;;;;;5038572;28;20032;-71
2023/12/02 23:01:21;;;;;;;28.42;14.40;;;0.10;99.90;;;;;;5037398;28;20017;-71
2023/12/02 23:03:46;;;;;;;33.55;16.85;;;0.10;99.90;;;;;;5040793;28;20029;-71
2023/12/02 23:06:11;;;;;;;;;;;0.10;99.90;;;;;;5040018;28;20390;-70
2023/12/02 23:08:38;;;;;;;30.25;16.00;;;0.10;99.90;;;;;;5039590;28;20336;-71
2023/12/02 23:11:03;;;;;;;;;;;0.10;99.90;;;;;;5039549;28;20033;-71
2023/12/02 23:13:35;;;;;;;31.27;16.95;;;0.10;99.90;;;;;;5038901;28;19913;-71
2023/12/02 23:16:35;;;;;;;32.95;17.08;;;0.10;99.90;;;;;;5037989;28;20025;-70
2023/12/02 23:19:00;;;;;;;39.03;18.33;;;0.00;99.90;;;;;;5037934;28;20032;-71
2023/12/02 23:21:26;;;;;;;;;;;0.10;99.90;;;;;;5039857;28;20028;-71
2023/12/02 23:23:51;;;;;;;29.90;15.82;;;0.10;99.90;;;;;;5039625;28;19912;-71
2023/12/02 23:26:17;;;;;;;;;;;0.10;99.90;;;;;;5041098;28;20478;-71
2023/12/02 23:28:42;;;;;;;28.67;14.80;;;0.20;99.90;;;;;;5039682;28;20259;-70
2023/12/02 23:31:08;;;;;;;;;;;0.20;99.90;;;;;;5041320;28;20018;-71
2023/12/02 23:33:33;;;;;;;26.65;13.73;;;0.20;99.90;;;;;;5040151;28;20397;-71
2023/12/02 23:36:01;;;;;;;30.52;15.25;;;0.30;99.90;;;;;;5040165;28;20028;-71
2023/12/02 23:38:26;;;;;;;31.80;14.68;;;0.30;99.90;;;;;;5039026;28;20065;-70
2023/12/02 23:40:52;;;;;;;;;;;0.40;99.90;;;;;;5040113;28;20061;-71
2023/12/02 23:43:31;;;;;;;26.90;15.57;;;0.40;99.90;;;;;;5040459;28;19908;-71
2023/12/02 23:45:57;;;;;;;27.45;14.25;;;0.40;99.90;;;;;;5040362;28;20033;-70
2023/12/02 23:48:22;;;;;;;;;;;0.40;99.90;;;;;;5040589;28;20021;-71
2023/12/02 23:50:48;;;;;;;29.02;14.35;;;0.40;99.90;;;;;;5039802;28;19970;-71
2023/12/02 23:53:13;;;;;;;;;;;0.40;99.90;;;;;;5039450;28;20082;-71
2023/12/02 23:55:39;;;;;;;27.45;13.63;;;0.40;99.90;;;;;;5039872;28;19913;-70
2023/12/02 23:58:04;;;;;;;;;;;0.40;99.90;;;;;;5041034;28;20113;-70
